Time;durP1;ratioP1;P1;durP2;ratioP2;P2;SDS_P1;SDS_P2;PMS_P1;PMS_P2;Temp;Humidity;BMP_temperature;BMP_pressure;BME280_temperature;BME280_humidity;BME280_pressure;Samples;Min_cycle;Max_cycle;Signal;HPM_P1;HPM_P2
2023/11/09 00:02:17;;;;;;;2.03;1.43;;;10.90;99.90;;;;;;5102697;28;20274;-64
2023/11/09 00:04:44;;;;;;;3.60;1.93;;;10.90;99.90;;;;;;5102371;28;20216;-63
2023/11/09 00:07:12;;;;;;;1.57;1.47;;;11.00;99.90;;;;;;5097614;28;20280;-63
2023/11/09 00:09:39;;;;;;;1.60;1.50;;;11.00;99.90;;;;;;5097182;28;20257;-63
2023/11/09 00:12:07;;;;;;;1.60;1.50;;;11.00;99.90;;;;;;5105667;28;20212;-63
2023/11/09 00:14:37;;;;;;;1.50;1.40;;;11.00;99.90;;;;;;5091909;28;20272;-63
2023/11/09 00:17:06;;;;;;;1.70;1.50;;;11.90;99.90;;;;;;5101132;28;20197;-63
2023/11/09 00:19:33;;;;;;;1.57;1.47;;;11.00;99.90;;;;;;5096158;28;20295;-62
2023/11/09 00:22:00;;;;;;;1.43;1.30;;;11.00;99.90;;;;;;5094973;28;20208;-63
2023/11/09 00:24:27;;;;;;;2.07;1.50;;;11.00;99.90;;;;;;5095416;28;20201;-63
2023/11/09 00:26:54;;;;;;;1.10;1.10;;;11.00;99.90;;;;;;5106951;28;20699;-63
2023/11/09 00:29:21;;;;;;;1.50;1.40;;;11.00;99.90;;;;;;5096151;28;20597;-64
2023/11/09 00:31:48;;;;;;;1.43;1.33;;;10.90;99.90;;;;;;5099054;28;20762;-63
2023/11/09 00:34:17;;;;;;;2.33;1.50;;;10.90;99.90;;;;;;5101403;28;20211;-64
2023/11/09 00:36:44;;;;;;;1.30;1.30;;;10.90;99.90;;;;;;5100834;28;20197;-63
2023/11/09 00:39:12;;;;;;;1.63;1.53;;;10.90;99.90;;;;;;5099896;28;20208;-63
2023/11/09 00:41:40;;;;;;;1.20;1.20;;;10.90;99.90;;;;;;5098996;28;20276;-62
2023/11/09 00:44:08;;;;;;;1.60;1.50;;;10.90;99.90;;;;;;5105563;28;20215;-62
2023/11/09 00:46:35;;;;;;;1.50;1.40;;;10.90;99.90;;;;;;5095638;28;20308;-62
2023/11/09 00:49:03;;;;;;;1.50;1.40;;;10.90;99.90;;;;;;5094918;28;20714;-63
2023/11/09 00:51:31;;;;;;;1.67;1.57;;;10.90;99.90;;;;;;5098398;28;20234;-63
2023/11/09 00:53:59;;;;;;;1.50;1.40;;;10.90;99.90;;;;;;5098786;28;20204;-63
2023/11/09 00:56:26;;;;;;;1.67;1.57;;;10.80;99.90;;;;;;5099321;28;20204;-63
2023/11/09 00:58:53;;;;;;;1.50;1.43;;;10.80;99.90;;;;;;5098586;28;20215;-63
2023/11/09 01:01:20;;;;;;;2.80;2.50;;;10.80;99.90;;;;;;5101155;28;20265;-63
2023/11/09 01:03:47;;;;;;;2.30;2.03;;;10.70;99.90;;;;;;5100210;28;20230;-64
2023/11/09 01:06:15;;;;;;;1.97;1.87;;;10.70;99.90;;;;;;5103638;28;20197;-64
2023/11/09 01:08:44;;;;;;;2.03;1.87;;;10.70;99.90;;;;;;5098920;28;20230;-63
2023/11/09 01:11:11;;;;;;;2.63;1.97;;;10.80;99.90;;;;;;5098741;28;20291;-63
2023/11/09 01:13:39;;;;;;;2.37;2.17;;;10.80;99.90;;;;;;5093352;28;20565;-63
2023/11/09 01:16:08;;;;;;;2.00;1.90;;;10.80;99.90;;;;;;5096884;28;20214;-63
2023/11/09 01:18:36;;;;;;;2.20;2.00;;;10.90;99.90;;;;;;5091316;28;20193;-62
2023/11/09 01:21:03;;;;;;;2.73;2.10;;;10.80;99.90;;;;;;5102458;28;20284;-63
2023/11/09 01:23:30;;;;;;;2.33;1.83;;;10.90;99.90;;;;;;5106284;28;20194;-63
2023/11/09 01:25:59;;;;;;;1.70;1.60;;;10.90;99.90;;;;;;5103299;28;20196;-63
2023/11/09 01:28:26;;;;;;;1.80;1.60;;;10.90;99.90;;;;;;5098332;28;20296;-63
2023/11/09 01:30:54;;;;;;;1.73;1.63;;;10.90;99.90;;;;;;5103075;28;20204;-63
2023/11/09 01:33:22;;;;;;;1.50;1.40;;;10.90;99.90;;;;;;5104420;28;20208;-62
2023/11/09 01:35:49;;;;;;;1.97;1.83;;;10.90;99.90;;;;;;5099292;28;20231;-62
2023/11/09 01:38:16;;;;;;;2.70;1.53;;;10.80;99.90;;;;;;5101055;28;20692;-62
2023/11/09 01:40:43;;;;;;;1.50;1.40;;;10.80;99.90;;;;;;5103583;28;20191;-63
2023/11/09 01:43:15;;;;;;;1.70;1.60;;;10.80;99.90;;;;;;5102503;28;20214;-63
2023/11/09 01:45:43;;;;;;;1.60;1.50;;;10.80;99.90;;;;;;5099900;28;20237;-63
2023/11/09 01:48:11;;;;;;;1.40;1.30;;;10.80;99.90;;;;;;5102189;28;20192;-62
2023/11/09 01:50:41;;;;;;;1.40;1.30;;;10.80;99.90;;;;;;5097553;28;20211;-63
2023/11/09 01:53:09;;;;;;;1.67;1.57;;;10.80;99.90;;;;;;5105217;28;20239;-63
2023/11/09 01:55:37;;;;;;;1.30;1.30;;;10.80;99.90;;;;;;5097395;28;20296;-63
2023/11/09 01:58:04;;;;;;;1.53;1.43;;;10.80;99.90;;;;;;5104529;28;20196;-63
2023/11/09 02:00:34;;;;;;;1.33;1.33;;;10.80;99.90;;;;;;5094150;28;20273;-62
2023/11/09 02:03:01;;;;;;;1.17;1.17;;;10.80;99.90;;;;;;5089697;28;20184;-62
2023/11/09 02:05:28;;;;;;;1.20;1.20;;;10.80;99.90;;;;;;5090421;28;20199;-62
2023/11/09 02:07:56;;;;;;;2.20;1.20;;;10.80;99.90;;;;;;5097094;28;20305;-63
2023/11/09 02:10:23;;;;;;;1.23;1.17;;;10.70;99.90;;;;;;5098519;28;20194;-62
2023/11/09 02:12:51;;;;;;;1.10;1.10;;;10.70;99.90;;;;;;5102809;28;20257;-62
2023/11/09 02:15:18;;;;;;;1.63;1.20;;;10.70;99.90;;;;;;5096447;28;20667;-62
2023/11/09 02:17:47;;;;;;;1.77;1.50;;;10.60;99.90;;;;;;5089042;28;20192;-63
2023/11/09 02:20:15;;;;;;;1.50;1.40;;;10.70;99.90;;;;;;5092897;28;20580;-63
2023/11/09 02:22:44;;;;;;;1.80;1.70;;;10.70;99.90;;;;;;5101938;28;20193;-62
2023/11/09 02:25:13;;;;;;;1.73;1.63;;;10.70;99.90;;;;;;5103569;28;20195;-62
2023/11/09 02:27:40;;;;;;;1.57;1.47;;;10.60;99.90;;;;;;5101191;28;20208;-62
2023/11/09 02:30:08;;;;;;;1.87;1.73;;;10.60;99.90;;;;;;5101103;28;20220;-62
2023/11/09 02:32:35;;;;;;;1.63;1.53;;;10.60;99.90;;;;;;5090376;28;20240;-61
2023/11/09 02:35:04;;;;;;;3.20;1.60;;;10.60;99.90;;;;;;5090127;28;20647;-62
2023/11/09 02:37:32;;;;;;;1.50;1.33;;;10.60;99.90;;;;;;5099137;28;20206;-62
2023/11/09 02:39:59;;;;;;;1.17;1.17;;;10.60;99.90;;;;;;5095236;28;20332;-62
2023/11/09 02:42:27;;;;;;;1.50;1.40;;;10.60;99.90;;;;;;5095123;28;20249;-63
2023/11/09 02:44:54;;;;;;;1.50;1.40;;;10.60;99.90;;;;;;5101914;28;20603;-62
2023/11/09 02:47:21;;;;;;;2.03;1.77;;;10.50;99.90;;;;;;5103942;28;20992;-63
2023/11/09 02:49:49;;;;;;;2.23;1.97;;;10.50;99.90;;;;;;5098473;28;20716;-62
2023/11/09 02:52:16;;;;;;;1.80;1.70;;;10.50;99.90;;;;;;5106619;28;20204;-62
2023/11/09 02:54:44;;;;;;;2.40;2.20;;;10.50;99.90;;;;;;5103154;28;20248;-62
2023/11/09 02:57:11;;;;;;;1.93;1.83;;;10.40;99.90;;;;;;5106226;28;20248;-62
2023/11/09 02:59:40;;;;;;;2.40;2.20;;;10.40;99.90;;;;;;5101196;28;20207;-62
2023/11/09 03:02:08;;;;;;;2.57;2.37;;;10.30;99.90;;;;;;5099505;28;20208;-62
2023/11/09 03:04:35;;;;;;;1.80;1.70;;;10.30;99.90;;;;;;5097266;28;20266;-62
2023/11/09 03:07:06;;;;;;;1.63;1.53;;;10.20;99.90;;;;;;5102353;28;20276;-62
2023/11/09 03:09:34;;;;;;;1.60;1.50;;;10.30;99.90;;;;;;5105455;28;20188;-62
2023/11/09 03:12:03;;;;;;;3.30;1.73;;;10.30;99.90;;;;;;5102132;28;20519;-62
2023/11/09 03:14:30;;;;;;;1.80;1.70;;;10.20;99.90;;;;;;5101707;28;20282;-62
2023/11/09 03:16:59;;;;;;;2.37;2.17;;;10.20;99.90;;;;;;5097869;28;20563;-62
2023/11/09 03:19:26;;;;;;;2.17;1.90;;;10.20;99.90;;;;;;5103064;28;20275;-62
2023/11/09 03:21:53;;;;;;;2.37;2.20;;;10.20;99.90;;;;;;5099010;28;20732;-62
2023/11/09 03:24:20;;;;;;;2.43;2.00;;;10.20;99.90;;;;;;5101788;28;20191;-62
2023/11/09 03:26:47;;;;;;;1.93;1.83;;;10.10;99.90;;;;;;5099566;28;20203;-62
2023/11/09 03:29:14;;;;;;;2.40;2.20;;;10.10;99.90;;;;;;5098008;28;20225;-62
2023/11/09 03:31:42;;;;;;;2.90;2.57;;;10.10;99.90;;;;;;5097683;28;20194;-62
2023/11/09 03:34:12;;;;;;;2.20;2.00;;;10.00;99.90;;;;;;5101692;28;20199;-62
2023/11/09 03:36:39;;;;;;;2.07;1.90;;;10.00;99.90;;;;;;5101292;28;20720;-62
2023/11/09 03:39:06;;;;;;;2.60;2.10;;;10.00;99.90;;;;;;5099596;28;20661;-62
2023/11/09 03:41:33;;;;;;;2.30;2.20;;;10.00;99.90;;;;;;5106790;28;20222;-62
2023/11/09 03:44:00;;;;;;;3.97;2.70;;;10.00;99.90;;;;;;5104503;28;20233;-62
2023/11/09 03:46:27;;;;;;;2.77;2.57;;;10.00;99.90;;;;;;5105166;28;20202;-62
2023/11/09 03:48:55;;;;;;;3.80;3.00;;;10.10;99.90;;;;;;5102925;28;20194;-62
2023/11/09 03:51:24;;;;;;;3.27;2.97;;;10.00;99.90;;;;;;5103484;28;20274;-62
2023/11/09 03:53:51;;;;;;;6.70;3.20;;;9.90;99.90;;;;;;5106922;28;20214;-62
2023/11/09 03:56:21;;;;;;;4.73;3.10;;;9.90;99.90;;;;;;5111043;28;20199;-62
2023/11/09 03:58:48;;;;;;;7.47;3.07;;;9.90;99.90;;;;;;5106481;28;20626;-62
2023/11/09 04:01:15;;;;;;;3.00;2.70;;;9.90;99.90;;;;;;5103166;28;20223;-62
2023/11/09 04:03:42;;;;;;;2.87;2.67;;;9.90;99.90;;;;;;5098979;28;20206;-62
2023/11/09 04:06:14;;;;;;;3.27;2.97;;;9.90;99.90;;;;;;5100467;28;20276;-62
2023/11/09 04:08:43;;;;;;;3.23;2.93;;;9.90;99.90;;;;;;5101734;28;20215;-62
2023/11/09 04:11:10;;;;;;;5.23;3.97;;;9.90;99.90;;;;;;5105470;28;20205;-62
2023/11/09 04:13:37;;;;;;;3.30;3.00;;;9.80;99.90;;;;;;5101155;28;20232;-62
2023/11/09 04:16:05;;;;;;;2.73;2.53;;;9.80;99.90;;;;;;5103498;28;20251;-62
2023/11/09 04:18:33;;;;;;;2.70;2.50;;;9.80;99.90;;;;;;5107192;28;20224;-62
2023/11/09 04:21:00;;;;;;;3.20;2.90;;;9.80;99.90;;;;;;5107392;28;20868;-62
2023/11/09 04:23:27;;;;;;;3.60;3.10;;;9.80;99.90;;;;;;5101780;28;20189;-62
2023/11/09 04:25:56;;;;;;;4.13;3.70;;;9.80;99.90;;;;;;5101367;28;20246;-62
2023/11/09 04:28:23;;;;;;;3.50;3.20;;;9.80;99.90;;;;;;5104446;27;20288;-62
2023/11/09 04:30:51;;;;;;;3.40;3.07;;;9.80;99.90;;;;;;5106018;28;20196;-63
2023/11/09 04:33:19;;;;;;;4.97;3.43;;;9.80;99.90;;;;;;5101069;28;20214;-62
2023/11/09 04:35:46;;;;;;;4.63;3.73;;;9.80;99.90;;;;;;5100528;28;20267;-63
2023/11/09 04:38:15;;;;;;;3.70;3.40;;;9.90;99.90;;;;;;5108001;28;20196;-62
2023/11/09 04:40:43;;;;;;;4.60;3.40;;;9.90;99.90;;;;;;5093766;28;20208;-63
2023/11/09 04:43:12;;;;;;;3.70;3.40;;;9.90;99.90;;;;;;5096798;28;20690;-62
2023/11/09 04:45:42;;;;;;;5.60;3.87;;;9.90;99.90;;;;;;5108671;28;20276;-62
2023/11/09 04:48:19;;;;;;;3.40;3.10;;;9.80;99.90;;;;;;5096263;28;20274;-62
2023/11/09 04:50:52;;;;;;;4.23;3.23;;;9.90;99.90;;;;;;5103468;28;20279;-63
2023/11/09 04:53:30;;;;;;;5.03;3.97;;;9.90;99.90;;;;;;5099612;28;20211;-63
2023/11/09 04:56:04;;;;;;;3.67;3.37;;;9.90;99.90;;;;;;5101763;28;20297;-63
2023/11/09 04:58:48;;;;;;;2.90;2.70;;;9.90;99.90;;;;;;5099725;28;20631;-63
2023/11/09 05:06:53;;;;;;;3.33;2.80;;;9.90;99.90;;;;;;5105180;28;20201;-63
2023/11/09 05:09:21;;;;;;;3.07;2.77;;;9.90;99.90;;;;;;5102116;28;20199;-63
2023/11/09 05:11:49;;;;;;;2.50;2.40;;;9.90;99.90;;;;;;5106383;28;20245;-63
2023/11/09 05:14:18;;;;;;;3.90;3.43;;;9.90;99.90;;;;;;5102332;28;20284;-63
2023/11/09 05:16:46;;;;;;;5.07;3.50;;;9.90;99.90;;;;;;5102993;28;20192;-63
2023/11/09 05:19:13;;;;;;;4.43;3.63;;;9.90;99.90;;;;;;5103927;28;20202;-63
2023/11/09 05:21:41;;;;;;;4.77;4.30;;;9.90;99.90;;;;;;5103347;28;20587;-63
2023/11/09 05:24:08;;;;;;;5.80;4.40;;;9.90;99.90;;;;;;5107942;28;20520;-63
2023/11/09 05:26:36;;;;;;;4.03;3.63;;;9.90;99.90;;;;;;5099430;28;20242;-63
2023/11/09 05:29:05;;;;;;;4.43;3.27;;;9.80;99.90;;;;;;5102928;28;20316;-63
2023/11/09 05:31:35;;;;;;;4.07;3.57;;;9.80;99.90;;;;;;5095301;28;20196;-63
2023/11/09 05:34:03;;;;;;;5.13;3.53;;;9.80;99.90;;;;;;5099573;28;20212;-63
2023/11/09 05:36:33;;;;;;;4.30;3.07;;;9.90;99.90;;;;;;5109091;28;20192;-63
2023/11/09 05:39:01;;;;;;;4.77;3.83;;;9.90;99.90;;;;;;5093684;28;20309;-63
2023/11/09 05:41:29;;;;;;;5.07;3.07;;;9.90;99.90;;;;;;5104180;28;20255;-63
2023/11/09 05:43:57;;;;;;;5.27;4.30;;;9.90;99.90;;;;;;5104955;28;20501;-63
2023/11/09 05:46:24;;;;;;;5.20;4.70;;;9.80;99.90;;;;;;5100052;28;20192;-63
2023/11/09 05:48:53;;;;;;;8.37;5.50;;;9.80;99.90;;;;;;5096171;28;20192;-63
2023/11/09 05:51:23;;;;;;;6.27;4.87;;;9.80;99.90;;;;;;5095874;28;20194;-63
2023/11/09 05:53:50;;;;;;;6.80;5.53;;;9.80;99.90;;;;;;5102389;28;20213;-63
2023/11/09 05:56:18;;;;;;;6.30;4.77;;;9.80;99.90;;;;;;5105279;28;20210;-63
2023/11/09 05:58:45;;;;;;;4.33;3.93;;;9.70;99.90;;;;;;5099023;28;20245;-63
2023/11/09 06:01:13;;;;;;;3.40;3.03;;;9.80;99.90;;;;;;5100132;28;20290;-63
2023/11/09 06:03:41;;;;;;;7.20;4.50;;;9.80;99.90;;;;;;5098263;28;20202;-63
2023/11/09 06:06:09;;;;;;;6.93;4.67;;;9.80;99.90;;;;;;5102371;28;20255;-63
2023/11/09 06:08:36;;;;;;;8.13;5.47;;;9.80;99.90;;;;;;5099286;28;20184;-63
2023/11/09 06:11:04;;;;;;;6.13;4.83;;;9.80;99.90;;;;;;5102337;28;20192;-63
2023/11/09 06:13:31;;;;;;;6.97;5.33;;;9.80;99.90;;;;;;5102403;28;20737;-63
2023/11/09 06:15:58;;;;;;;6.00;5.10;;;9.80;99.90;;;;;;5101638;28;20302;-63
2023/11/09 06:18:26;;;;;;;7.57;4.40;;;9.70;99.90;;;;;;5101861;28;20186;-63
2023/11/09 06:20:55;;;;;;;8.63;5.47;;;9.70;99.90;;;;;;5106830;28;20222;-63
2023/11/09 06:23:24;;;;;;;7.27;4.93;;;9.70;99.90;;;;;;5104492;28;20562;-63
2023/11/09 06:25:53;;;;;;;7.93;5.10;;;9.60;99.90;;;;;;5103296;28;20214;-63
2023/11/09 06:28:20;;;;;;;6.40;4.97;;;9.60;99.90;;;;;;5091774;28;20313;-63
2023/11/09 06:30:47;;;;;;;6.40;5.10;;;9.60;99.90;;;;;;5103996;28;20212;-63
2023/11/09 06:33:15;;;;;;;6.47;5.17;;;9.60;99.90;;;;;;5092552;28;20199;-63
2023/11/09 06:35:42;;;;;;;5.60;4.33;;;9.70;99.90;;;;;;5105311;28;20203;-63
2023/11/09 06:38:09;;;;;;;7.33;5.43;;;9.70;99.90;;;;;;5099378;28;20288;-63
2023/11/09 06:40:38;;;;;;;5.00;4.50;;;9.70;99.90;;;;;;5093779;28;20188;-63
2023/11/09 06:43:05;;;;;;;5.83;4.43;;;9.70;99.90;;;;;;5107324;28;20602;-63
2023/11/09 06:45:32;;;;;;;7.67;5.60;;;9.70;99.90;;;;;;5094865;28;20556;-63
2023/11/09 06:47:59;;;;;;;7.27;4.77;;;9.70;99.90;;;;;;5096548;28;20202;-63
2023/11/09 06:50:27;;;;;;;5.27;4.23;;;9.70;99.90;;;;;;5106565;28;20256;-63
2023/11/09 06:52:55;;;;;;;3.63;3.33;;;9.70;99.90;;;;;;5098652;28;20205;-63
2023/11/09 06:55:23;;;;;;;4.90;3.57;;;9.80;99.90;;;;;;5101414;28;20287;-63
2023/11/09 06:57:53;;;;;;;7.63;4.53;;;9.80;99.90;;;;;;5101139;28;20206;-63
2023/11/09 07:00:23;;;;;;;6.63;5.10;;;9.80;99.90;;;;;;5102269;28;20196;-63
2023/11/09 07:02:51;;;;;;;8.67;5.73;;;9.80;99.90;;;;;;5095803;28;20299;-63
2023/11/09 07:05:19;;;;;;;10.53;5.90;;;9.80;99.90;;;;;;5097343;28;20199;-63
2023/11/09 07:07:50;;;;;;;4.80;4.37;;;9.80;99.90;;;;;;5097196;28;20183;-63
2023/11/09 07:10:18;;;;;;;7.77;5.37;;;9.70;99.90;;;;;;5095347;28;20282;-62
2023/11/09 07:12:45;;;;;;;8.60;6.10;;;9.70;99.90;;;;;;5095881;28;20198;-63
2023/11/09 07:15:14;;;;;;;10.37;5.80;;;9.70;99.90;;;;;;5089837;28;20231;-63
2023/11/09 07:17:41;;;;;;;10.13;6.60;;;9.70;99.90;;;;;;5101522;28;20220;-63
2023/11/09 07:20:10;;;;;;;11.17;7.57;;;9.60;99.90;;;;;;5090499;28;20582;-63
2023/11/09 07:22:38;;;;;;;11.13;7.07;;;9.60;99.90;;;;;;5108861;28;20204;-63
2023/11/09 07:25:08;;;;;;;12.17;7.40;;;9.60;99.90;;;;;;5095825;28;20553;-63
2023/11/09 07:27:35;;;;;;;11.23;7.20;;;9.50;99.90;;;;;;5097240;27;21175;-63
2023/11/09 07:30:03;;;;;;;12.10;7.47;;;9.40;99.90;;;;;;5095658;28;20322;-63
2023/11/09 07:32:32;;;;;;;9.67;6.63;;;9.40;99.90;;;;;;5100676;27;21277;-63
2023/11/09 07:34:59;;;;;;;14.93;7.93;;;9.30;99.90;;;;;;5098222;28;20204;-63
2023/11/09 07:37:27;;;;;;;11.57;7.00;;;9.30;99.90;;;;;;5098028;28;20604;-63
2023/11/09 07:39:54;;;;;;;12.83;6.70;;;9.20;99.90;;;;;;5100920;28;20235;-63
2023/11/09 07:42:22;;;;;;;11.53;7.40;;;9.20;99.90;;;;;;5099808;28;20306;-63
2023/11/09 07:44:49;;;;;;;12.87;6.93;;;9.10;99.90;;;;;;5107614;28;20199;-63
2023/11/09 07:47:17;;;;;;;14.33;8.17;;;9.10;99.90;;;;;;5093814;28;20206;-63
2023/11/09 07:49:46;;;;;;;13.53;8.20;;;9.10;99.90;;;;;;5104719;28;20535;-63
2023/11/09 07:52:14;;;;;;;12.27;7.40;;;9.10;99.90;;;;;;5106191;28;20253;-63
2023/11/09 07:54:43;;;;;;;11.40;7.80;;;9.00;99.90;;;;;;5101668;28;20227;-63
2023/11/09 07:57:11;;;;;;;15.97;8.37;;;9.00;99.90;;;;;;5110096;28;20203;-63
2023/11/09 07:59:38;;;;;;;13.57;8.20;;;9.00;99.90;;;;;;5100477;28;20693;-63
2023/11/09 08:02:07;;;;;;;13.87;8.30;;;8.90;99.90;;;;;;5106057;28;20185;-63
2023/11/09 08:04:34;;;;;;;13.00;8.17;;;8.90;99.90;;;;;;5097803;28;20188;-63
2023/11/09 08:07:02;;;;;;;14.83;7.93;;;8.90;99.90;;;;;;5102717;28;20215;-63
2023/11/09 08:09:30;;;;;;;14.90;8.27;;;8.90;99.90;;;;;;5101402;28;20641;-63
2023/11/09 08:11:57;;;;;;;14.67;8.10;;;8.90;99.90;;;;;;5105801;28;20207;-63
2023/11/09 08:14:24;;;;;;;14.00;8.17;;;8.90;99.90;;;;;;5104542;28;20707;-63
2023/11/09 08:16:51;;;;;;;11.93;7.67;;;8.90;99.90;;;;;;5099938;28;20455;-63
2023/11/09 08:19:18;;;;;;;13.10;7.53;;;8.90;99.90;;;;;;5100911;28;20717;-63
2023/11/09 08:21:45;;;;;;;12.67;6.67;;;8.90;99.90;;;;;;5093282;28;20248;-63
2023/11/09 08:24:13;;;;;;;9.70;7.07;;;9.00;99.90;;;;;;5104476;28;20690;-63
2023/11/09 08:26:43;;;;;;;12.70;7.30;;;9.00;99.90;;;;;;5101109;28;20221;-63
2023/11/09 08:29:10;;;;;;;11.70;7.23;;;9.10;99.90;;;;;;5099856;28;20424;-63
2023/11/09 08:31:38;;;;;;;10.80;7.23;;;9.10;99.90;;;;;;5104623;28;20211;-63
2023/11/09 08:34:06;;;;;;;12.20;6.93;;;9.10;99.90;;;;;;5103901;28;20615;-63
2023/11/09 08:36:33;;;;;;;46.90;16.93;;;9.60;99.90;;;;;;5104619;28;20369;-63
2023/11/09 08:39:02;;;;;;;27.30;12.57;;;9.20;99.90;;;;;;5103013;28;20209;-63
2023/11/09 08:41:31;;;;;;;16.87;8.67;;;9.30;99.90;;;;;;5101541;28;20214;-63
2023/11/09 08:43:58;;;;;;;13.47;8.13;;;9.30;99.90;;;;;;5100074;28;20536;-63
2023/11/09 08:46:25;;;;;;;10.17;6.80;;;9.30;99.90;;;;;;5098882;28;20235;-63
2023/11/09 08:48:52;;;;;;;10.70;6.70;;;9.30;99.90;;;;;;5099325;28;20647;-63
2023/11/09 08:51:20;;;;;;;9.80;6.53;;;9.30;99.90;;;;;;5095369;28;20211;-63
2023/11/09 08:53:47;;;;;;;11.83;7.50;;;9.40;99.90;;;;;;5101963;28;20212;-63
2023/11/09 08:56:14;;;;;;;10.90;7.70;;;9.40;99.90;;;;;;5090942;28;20236;-63
2023/11/09 08:58:43;;;;;;;12.40;6.90;;;9.50;99.90;;;;;;5096856;28;20194;-63
2023/11/09 09:01:18;;;;;;;12.73;7.70;;;9.50;99.90;;;;;;5101411;28;20274;-63
2023/11/09 09:03:46;;;;;;;11.03;7.13;;;9.60;99.90;;;;;;5096177;28;20253;-63
2023/11/09 09:06:15;;;;;;;12.90;7.83;;;9.60;99.90;;;;;;5097150;28;20618;-63
2023/11/09 09:08:44;;;;;;;12.87;8.17;;;9.60;99.90;;;;;;5094747;28;20251;-63
2023/11/09 09:11:12;;;;;;;13.93;7.60;;;9.60;99.90;;;;;;5105855;28;20648;-63
2023/11/09 09:13:40;;;;;;;12.90;6.97;;;9.70;99.90;;;;;;5095973;28;20210;-63
2023/11/09 09:16:09;;;;;;;13.07;7.00;;;9.70;99.90;;;;;;5098304;28;20200;-63
2023/11/09 09:18:36;;;;;;;11.87;6.87;;;9.70;99.90;;;;;;5106365;28;20202;-63
2023/11/09 09:21:08;;;;;;;13.53;6.97;;;9.70;99.90;;;;;;5108537;28;20204;-63
2023/11/09 09:23:36;;;;;;;14.53;6.77;;;9.70;99.90;;;;;;5099719;28;20283;-63
2023/11/09 09:26:04;;;;;;;14.37;6.40;;;9.80;99.90;;;;;;5102706;28;20654;-63
2023/11/09 09:28:34;;;;;;;11.47;6.20;;;9.80;99.90;;;;;;5104942;28;20247;-63
2023/11/09 09:31:03;;;;;;;7.53;5.70;;;9.90;99.90;;;;;;5096541;28;20265;-63
2023/11/09 09:33:35;;;;;;;10.93;6.73;;;9.90;99.90;;;;;;5095782;28;20546;-63
2023/11/09 09:36:04;;;;;;;9.60;5.87;;;9.90;99.90;;;;;;5092877;28;20189;-63
2023/11/09 09:38:34;;;;;;;12.90;6.67;;;10.00;99.90;;;;;;5106996;28;20918;-63
2023/11/09 09:41:04;;;;;;;11.23;5.93;;;10.00;99.90;;;;;;5092569;28;20283;-63
2023/11/09 09:43:37;;;;;;;12.43;6.27;;;10.00;99.90;;;;;;5098332;28;20299;-63
2023/11/09 09:46:09;;;;;;;11.23;6.23;;;8.80;99.90;;;;;;5100723;28;20210;-63
2023/11/09 09:48:38;;;;;;;9.70;5.77;;;10.10;99.90;;;;;;5101305;28;20603;-63
2023/11/09 09:51:09;;;;;;;11.07;6.40;;;10.20;99.90;;;;;;5098689;28;20507;-63
2023/11/09 09:53:39;;;;;;;9.37;5.67;;;10.30;99.90;;;;;;5099623;28;20195;-63
2023/11/09 09:56:09;;;;;;;8.17;5.10;;;10.40;99.90;;;;;;5096411;28;20197;-64
2023/11/09 09:58:37;;;;;;;8.60;5.20;;;10.50;99.90;;;;;;5094653;28;20194;-63
2023/11/09 10:01:05;;;;;;;8.73;5.17;;;10.60;99.90;;;;;;5103215;28;20626;-64
2023/11/09 10:03:34;;;;;;;8.57;5.63;;;10.70;99.90;;;;;;5104225;28;20234;-63
2023/11/09 10:06:05;;;;;;;10.50;5.93;;;10.70;99.90;;;;;;5091947;28;20219;-63
2023/11/09 10:08:33;;;;;;;9.37;5.90;;;10.70;99.90;;;;;;5096243;28;20397;-62
2023/11/09 10:11:00;;;;;;;8.37;5.40;;;10.70;99.90;;;;;;5102285;28;20257;-62
2023/11/09 10:13:30;;;;;;;7.67;5.23;;;10.70;99.90;;;;;;5098871;28;20658;-62
2023/11/09 10:15:58;;;;;;;10.03;5.30;;;10.70;99.90;;;;;;5105274;28;20445;-62
2023/11/09 10:18:26;;;;;;;7.80;5.30;;;10.70;99.90;;;;;;5097001;28;20193;-63
2023/11/09 10:20:56;;;;;;;11.73;5.50;;;10.70;99.90;;;;;;5101547;28;20256;-63
2023/11/09 10:23:26;;;;;;;11.73;6.17;;;10.80;99.90;;;;;;5099188;28;20574;-63
2023/11/09 10:25:53;;;;;;;9.63;5.67;;;10.70;99.90;;;;;;5097387;28;20659;-63
2023/11/09 10:28:22;;;;;;;11.00;5.30;;;10.70;99.90;;;;;;5104321;28;20317;-62
2023/11/09 10:30:49;;;;;;;7.60;4.47;;;10.60;99.90;;;;;;5105067;28;20282;-63
2023/11/09 10:33:17;;;;;;;7.73;4.97;;;10.60;99.90;;;;;;5103273;28;20688;-63
2023/11/09 10:35:46;;;;;;;8.27;4.80;;;10.60;99.90;;;;;;5101750;28;20207;-63
2023/11/09 10:38:17;;;;;;;10.13;5.03;;;10.60;99.90;;;;;;5098191;28;20269;-63
2023/11/09 10:40:47;;;;;;;8.10;5.17;;;10.50;99.90;;;;;;5096346;28;20197;-63
2023/11/09 10:43:16;;;;;;;11.83;5.23;;;10.50;99.90;;;;;;5098410;28;20206;-63
2023/11/09 10:45:44;;;;;;;12.53;5.30;;;10.50;99.90;;;;;;5098755;28;20286;-63
2023/11/09 10:48:17;;;;;;;7.10;4.73;;;10.50;99.90;;;;;;5106105;28;20676;-63
2023/11/09 10:50:47;;;;;;;10.37;5.80;;;10.50;99.90;;;;;;5101303;28;20260;-63
2023/11/09 10:53:15;;;;;;;8.27;5.17;;;10.50;99.90;;;;;;5102238;28;20275;-62
2023/11/09 10:55:47;;;;;;;12.50;5.37;;;10.50;99.90;;;;;;5108453;28;20645;-63
2023/11/09 10:58:20;;;;;;;9.57;5.63;;;10.60;99.90;;;;;;5090055;28;20233;-63
2023/11/09 11:00:50;;;;;;;7.50;4.70;;;10.60;99.90;;;;;;5101681;28;20757;-63
2023/11/09 11:03:25;;;;;;;6.97;4.53;;;10.70;99.90;;;;;;5101953;28;20736;-63
2023/11/09 11:05:58;;;;;;;8.83;5.70;;;10.80;99.90;;;;;;5103296;28;20200;-62
2023/11/09 11:08:27;;;;;;;8.60;4.43;;;10.80;99.90;;;;;;5105660;28;20197;-63
2023/11/09 11:10:56;;;;;;;10.97;5.70;;;10.90;99.90;;;;;;5106396;28;20205;-63
2023/11/09 11:13:28;;;;;;;8.90;4.67;;;10.90;99.90;;;;;;5106594;28;20269;-63
2023/11/09 11:16:28;;;;;;;11.77;5.00;;;10.90;99.90;;;;;;5100351;28;20214;-63
2023/11/09 11:19:24;;;;;;;12.13;5.27;;;10.90;99.90;;;;;;5108273;28;20195;-62
2023/11/09 11:22:15;;;;;;;7.93;4.30;;;11.00;99.90;;;;;;5105777;28;20196;-63
2023/11/09 11:25:14;;;;;;;5.47;3.90;;;11.00;99.90;;;;;;5103133;28;20279;-63
2023/11/09 11:27:50;;;;;;;8.80;4.60;;;11.10;99.90;;;;;;5099902;28;20190;-63
2023/11/09 11:30:25;;;;;;;9.87;4.90;;;11.10;99.90;;;;;;5057760;28;20189;-63
2023/11/09 11:32:54;;;;;;;8.67;4.80;;;11.20;99.90;;;;;;5063170;28;20704;-63
2023/11/09 11:35:39;;;;;;;6.27;4.03;;;11.20;99.90;;;;;;5061638;28;20214;-63
2023/11/09 11:38:19;;;;;;;6.10;4.23;;;11.20;99.90;;;;;;5066729;28;20595;-63
2023/11/09 11:40:48;;;;;;;7.50;4.70;;;11.30;99.90;;;;;;5063834;28;20536;-63
2023/11/09 11:43:17;;;;;;;8.27;4.40;;;11.30;99.90;;;;;;5060609;28;20193;-62
2023/11/09 11:45:47;;;;;;;7.33;4.20;;;11.40;99.90;;;;;;5065730;28;20192;-62
2023/11/09 11:48:19;;;;;;;9.70;4.63;;;11.40;99.90;;;;;;5060885;28;20250;-63
2023/11/09 11:50:49;;;;;;;8.43;4.73;;;11.40;99.90;;;;;;5064400;28;20204;-63
2023/11/09 11:53:28;;;;;;;11.07;4.97;;;11.50;99.90;;;;;;5068999;28;20193;-63
2023/11/09 11:55:59;;;;;;;11.00;5.07;;;11.40;99.90;;;;;;5060449;28;20293;-63
2023/11/09 11:58:52;;;;;;;7.73;4.97;;;11.50;99.90;;;;;;5057503;28;20194;-63
2023/11/09 12:01:21;;;;;;;7.60;5.00;;;11.50;99.90;;;;;;5060424;28;20287;-63
2023/11/09 12:03:51;;;;;;;8.30;4.80;;;11.50;99.90;;;;;;5055906;28;20205;-64
2023/11/09 12:06:21;;;;;;;8.40;4.60;;;11.40;99.90;;;;;;5059405;28;20311;-62
2023/11/09 12:08:53;;;;;;;9.17;4.83;;;11.50;99.90;;;;;;5061732;28;20256;-63
2023/11/09 12:11:23;;;;;;;10.57;5.37;;;11.50;99.90;;;;;;5062057;28;20201;-63
2023/11/09 12:13:54;;;;;;;9.00;4.73;;;11.60;99.90;;;;;;5056981;28;20194;-63
2023/11/09 12:16:24;;;;;;;6.77;4.63;;;11.60;99.90;;;;;;5063331;28;20197;-63
2023/11/09 12:18:52;;;;;;;7.73;4.93;;;11.60;99.90;;;;;;5049956;28;20227;-63
2023/11/09 12:21:21;;;;;;;8.07;4.43;;;11.70;99.90;;;;;;5055626;28;20194;-63
2023/11/09 12:23:52;;;;;;;8.10;4.63;;;11.60;99.90;;;;;;5059179;28;20277;-63
2023/11/09 12:26:20;;;;;;;8.93;4.93;;;11.60;99.90;;;;;;5061777;28;20255;-63
2023/11/09 12:28:48;;;;;;;6.60;4.33;;;11.60;99.90;;;;;;5073084;28;20261;-63
2023/11/09 12:31:19;;;;;;;7.30;4.73;;;11.60;99.90;;;;;;5104506;28;20273;-63
2023/11/09 12:34:08;;;;;;;7.57;4.23;;;11.60;99.90;;;;;;5107321;28;20245;-64
2023/11/09 12:36:38;;;;;;;6.83;4.00;;;11.60;99.90;;;;;;5099554;28;20211;-63
2023/11/09 12:39:26;;;;;;;7.33;3.80;;;11.60;99.90;;;;;;5104288;28;21029;-62
2023/11/09 12:41:55;;;;;;;5.80;3.87;;;11.60;99.90;;;;;;5099350;28;20198;-62
2023/11/09 12:44:24;;;;;;;6.73;4.03;;;11.60;99.90;;;;;;5102622;28;20280;-62
2023/11/09 12:46:54;;;;;;;6.90;3.77;;;11.60;99.90;;;;;;5103060;28;20660;-63
2023/11/09 12:49:23;;;;;;;5.07;2.83;;;11.60;99.90;;;;;;5105266;28;20220;-62
2023/11/09 12:51:51;;;;;;;4.90;3.20;;;11.60;99.90;;;;;;5105611;27;20193;-62
2023/11/09 12:54:20;;;;;;;3.07;2.77;;;11.60;99.90;;;;;;5103619;28;20193;-62
2023/11/09 12:56:49;;;;;;;3.47;2.90;;;11.60;99.90;;;;;;5096592;28;20658;-62
2023/11/09 12:59:24;;;;;;;3.20;2.53;;;11.60;99.90;;;;;;5106289;28;20220;-62
2023/11/09 13:01:55;;;;;;;2.87;2.10;;;11.60;99.90;;;;;;5096707;28;20289;-63
2023/11/09 13:04:23;;;;;;;3.93;2.20;;;11.60;99.90;;;;;;5099048;28;20217;-63